ADDS METAR Data INFO
IDs: Format: Raw Decoded Include TAF

Data at: 0048 UTC 22 Oct 2017

KVQQ 212350Z 03004KT 10SM SCT055 23/19 A3019
KVQQ 212250Z 08010KT 10SM SCT055 24/18 A3019
KVQQ 212150Z 08010KT 10SM SCT048 SCT055 25/18 A3018
KVQQ 212050Z 09010G15KT 10SM SCT050 26/17 A3017
KVQQ 211850Z 10009G15KT 10SM SCT050 SCT055 28/17 A3017
KVQQ 211750Z 07010G16KT 10SM BKN050 29/18 A3018
KVQQ 211650Z 09008KT 10SM SCT048 28/17 A3021
KVQQ 211550Z 11010KT 10SM BKN045 27/18 A3021
KVQQ 211450Z 09010KT 10SM BKN041 27/20 A3021
KVQQ 211350Z 03004KT 10SM CLR 23/22 A3021
KVQQ 211250Z 02004KT 10SM CLR 20/20 A3019
KVQQ 211150Z 01003KT 6SM BR CLR 17/17 A3017
KVQQ 211050Z 00000KT 7SM SCT042 17/17 A3016
KVQQ 211035Z AUTO 00000KT 2SM BR FEW042 18/18 A3015 RMK AO2
KVQQ 211015Z AUTO 00000KT 8SM CLR 18/18 A3015 RMK AO2
KVQQ 210955Z AUTO 00000KT 3SM BR FEW045 17/17 A3015 RMK AO2
KVQQ 210935Z AUTO 00000KT 10SM CLR 18/18 A3014 RMK AO2
KVQQ 210915Z AUTO 00000KT 10SM CLR 18/18 A3014 RMK AO2
KVQQ 210855Z AUTO 00000KT 10SM FEW048 19/19 A3013 RMK AO2
KVQQ 210835Z AUTO 00000KT 10SM SCT038 BKN048 BKN055 19/19 A3013 RMK AO2
KVQQ 210815Z AUTO 00000KT 10SM SCT040 SCT047 BKN055 18/18 A3013 RMK AO2
KVQQ 210755Z AUTO 00000KT 10SM BKN050 18/18 A3013 RMK AO2
KVQQ 210735Z AUTO 00000KT 9SM BKN049 18/18 A3013 RMK AO2
KVQQ 210715Z AUTO 00000KT 10SM BKN046 BKN050 18/18 A3013 RMK AO2
KVQQ 210655Z AUTO 00000KT 10SM BKN046 BKN055 18/18 A3014 RMK AO2
KVQQ 210635Z AUTO 00000KT 10SM FEW028 FEW040 BKN049 18/18 A3015 RMK AO2
KVQQ 210615Z AUTO 00000KT 9SM FEW026 SCT030 BKN047 18/18 A3015 RMK AO2
KVQQ 210555Z AUTO 00000KT 10SM FEW030 FEW034 FEW050 18/18 A3015 RMK AO2
KVQQ 210535Z AUTO 00000KT 10SM CLR 18/18 A3016 RMK AO2
KVQQ 210515Z AUTO 00000KT 10SM CLR 19/19 A3016 RMK AO2
KVQQ 210455Z AUTO 00000KT 10SM CLR 19/19 A3016 RMK AO2
KVQQ 210435Z AUTO 00000KT 10SM CLR 19/19 A3016 RMK AO2
KVQQ 210415Z AUTO 00000KT 10SM CLR 19/19 A3016 RMK AO2
KVQQ 210355Z AUTO 00000KT 10SM CLR 20/19 A3016 RMK AO2
KVQQ 210335Z AUTO 00000KT 10SM CLR 21/20 A3016 RMK AO2
KVQQ 210315Z AUTO 00000KT 10SM CLR 21/20 A3016 RMK AO2
KVQQ 210250Z 03003KT 10SM FEW040 22/20 A3016
KVQQ 210150Z 03004KT 10SM BKN038 BKN044 21/20 A3015
KVQQ 210050Z 04004KT 10SM FEW041 BKN048 22/20 A3015
KVQQ 202350Z 05003KT 10SM FEW048 SCT055 22/19 A3014
KVQQ 202250Z 07005G10KT 10SM CLR 24/19 A3013
KVQQ 202150Z 07010G16KT 10SM FEW032 SCT044 25/20 A3013
KVQQ 202050Z 04013KT 10SM SCT028 BKN036 26/21 A3013
KVQQ 201950Z 06009G16KT 10SM SCT027 SCT035 BKN044 27/21 A3014
KVQQ 201850Z 03008G16KT 10SM BKN027 27/22 A3014
KVQQ 201750Z 03008G16KT 10SM BKN028 27/22 A3016
KVQQ 201650Z 03008G16KT 10SM BKN029 28/21 A3018
KVQQ 201550Z 03008KT 10SM BKN025 27/22 A3019
KVQQ 201450Z 06005G14KT 10SM SCT018 25/22 A3021
KVQQ 201350Z 03010KT 10SM CLR 22/21 A3020
KVQQ 201250Z 36010KT 10SM CLR 19/19 A3019